ZW-0013 weather

Lupane Airport
Lupane, Matabeleland North Province, Zimbabwe

Public forecast

Using degrees Celsius for public forecast. Weather courtesy of forecast.io.

METAR (pilot weather report)

Report is more than 6 hours old.

Closest report is Hwange National Park Airport, 48.1 nm (89.1 km) WNW. Retrieved 2019/08/14 06:00 UTC (6 days ago):

FVWN 140600Z 00000KT CAVOK 15/06 Q1026

TAF (pilot weather forecast)

Forecast is more than 12 hours old.

Closest forecast is Hwange National Park Airport, 48.1 nm (89.1 km) WNW. Retrieved 2014/01/24 05:00 UTC (6 years ago):

TAF FVWN 240400Z 2405/2418 VRB03KT CAVOK BECMG 2408/2410 9999 SCT030TCU FEW025CB PROB30 TEMPO 2410/2414 -TSRA